createdAt,value
2019-03-03T00:00:06.517Z,100016.64
2019-03-03T00:00:56.133Z,100016.69
2019-03-03T00:01:34.214Z,100013.84
2019-03-03T00:02:10.170Z,100011.84
2019-03-03T00:02:45.583Z,100022.75
2019-03-03T00:03:21.516Z,100035.77
2019-03-03T00:03:57.154Z,100012.29
2019-03-03T00:04:32.849Z,100027.37
2019-03-03T00:05:08.652Z,100027.37
2019-03-03T00:05:44.057Z,100022.12
2019-03-03T00:06:20.012Z,100019.37
2019-03-03T00:06:55.666Z,100015.49
2019-03-03T00:07:31.657Z,100007.30
2019-03-03T00:08:07.130Z,100007.30
2019-03-03T00:08:42.522Z,100018.25
2019-03-03T00:09:17.913Z,100007.13
2019-03-03T00:09:54.152Z,100012.23
2019-03-03T00:10:30.101Z,100012.23
2019-03-03T00:11:05.760Z,100006.55
2019-03-03T00:11:41.425Z,100018.02
2019-03-03T00:12:16.833Z,100007.44
2019-03-03T00:12:52.263Z,100014.64
2019-03-03T00:13:27.932Z,100016.87
2019-03-03T00:14:03.498Z,100008.80
2019-03-03T00:14:38.847Z,100015.88
2019-03-03T00:15:14.409Z,100015.88
2019-03-03T00:15:49.829Z,100013.58
2019-03-03T00:16:25.308Z,100018.70
2019-03-03T00:17:00.706Z,100018.70
2019-03-03T00:17:36.091Z,100009.70
2019-03-03T00:18:11.748Z,100014.02
2019-03-03T00:18:47.162Z,100014.02
2019-03-03T00:19:22.559Z,100019.94
2019-03-03T00:19:57.938Z,100019.94
2019-03-03T00:20:33.599Z,100018.20
2019-03-03T00:21:09.225Z,100019.49
2019-03-03T00:21:44.914Z,100028.30
2019-03-03T00:22:20.578Z,100022.91
2019-03-03T00:22:56.007Z,100022.91
2019-03-03T00:23:31.387Z,100024.70
2019-03-03T00:24:06.885Z,100025.50
2019-03-03T00:24:42.529Z,100027.68
2019-03-03T00:25:18.275Z,100029.37
2019-03-03T00:25:53.778Z,100029.37
2019-03-03T00:26:29.158Z,100031.16
2019-03-03T00:27:04.546Z,100025.23
2019-03-03T00:27:40.195Z,100026.25
2019-03-03T00:28:15.642Z,100026.25
2019-03-03T00:28:51.044Z,100022.92
2019-03-03T00:29:27.016Z,100022.92
2019-03-03T00:30:02.688Z,100027.19
2019-03-03T00:30:38.077Z,100018.95
2019-03-03T00:31:16.147Z,100020.78
2019-03-03T00:31:51.564Z,100020.78
2019-03-03T00:32:27.208Z,100025.94
2019-03-03T00:33:02.926Z,100016.28
2019-03-03T00:33:38.315Z,100016.28
2019-03-03T00:34:13.991Z,100028.73
2019-03-03T00:34:49.385Z,100021.14
2019-03-03T00:35:24.790Z,100021.26
2019-03-03T00:36:00.165Z,100032.70
2019-03-03T00:36:53.456Z,100032.70
2019-03-03T00:37:41.404Z,100027.19
2019-03-03T00:38:45.068Z,100021.77
2019-03-03T00:39:32.948Z,100027.63
2019-03-03T00:40:30.156Z,100027.63
2019-03-03T00:41:23.223Z,100014.38
2019-03-03T00:42:17.884Z,100021.10
2019-03-03T00:43:06.091Z,100021.10
2019-03-03T00:43:48.031Z,100021.18
2019-03-03T00:44:42.571Z,100021.18
2019-03-03T00:45:25.733Z,100016.86
2019-03-03T00:46:23.622Z,100016.86
2019-03-03T00:47:20.113Z,100018.70
2019-03-03T00:48:20.680Z,100018.70
2019-03-03T00:49:17.560Z,100020.66
2019-03-03T00:50:04.534Z,100020.66
2019-03-03T00:51:07.805Z,100017.17
2019-03-03T00:52:00.830Z,100018.92
2019-03-03T00:52:45.986Z,100018.92
2019-03-03T00:53:35.143Z,100014.55
2019-03-03T00:54:38.711Z,100018.20
2019-03-03T00:55:41.662Z,100018.20
2019-03-03T00:56:50.875Z,100029.42
2019-03-03T00:57:38.945Z,100013.84
2019-03-03T00:58:34.891Z,100023.27
2019-03-03T00:59:31.994Z,100023.27
2019-03-03T01:00:21.442Z,100023.19
2019-03-03T01:01:08.137Z,100018.73
2019-03-03T01:01:48.615Z,100018.73
2019-03-03T01:02:46.897Z,100023.45
2019-03-03T01:03:47.132Z,100023.45
2019-03-03T01:04:56.511Z,100033.56
2019-03-03T01:06:03.014Z,100023.95
2019-03-03T01:06:55.904Z,100023.95
2019-03-03T01:07:59.196Z,100012.99
2019-03-03T01:08:59.458Z,100012.99
2019-03-03T01:09:57.835Z,100022.91
2019-03-03T01:11:01.379Z,100022.91
2019-03-03T01:11:55.991Z,100020.66
2019-03-03T01:12:50.605Z,100025.28
2019-03-03T01:13:44.980Z,100020.96
2019-03-03T01:14:27.334Z,100020.96
2019-03-03T01:15:20.165Z,100023.98
2019-03-03T01:16:20.595Z,100021.37
2019-03-03T01:17:13.645Z,100021.37
2019-03-03T01:18:14.567Z,100014.38
2019-03-03T01:19:01.078Z,100022.39
2019-03-03T01:19:52.285Z,100021.72
2019-03-03T01:20:46.663Z,100020.38
2019-03-03T01:21:53.547Z,100020.38
2019-03-03T01:22:32.698Z,100013.58
2019-03-03T01:23:25.683Z,100016.52
2019-03-03T01:24:20.033Z,100003.25
2019-03-03T01:24:58.298Z,100003.25
2019-03-03T01:25:33.685Z,100004.45
2019-03-03T01:26:09.324Z,100009.80
2019-03-03T01:26:44.807Z,100009.80
2019-03-03T01:27:20.504Z,100003.12
2019-03-03T01:27:56.401Z,100002.27
2019-03-03T01:28:31.868Z,100011.25
2019-03-03T01:29:07.523Z,100014.02
2019-03-03T01:29:43.179Z,100014.02
2019-03-03T01:30:18.939Z,100026.74
2019-03-03T01:30:54.574Z,100013.30
2019-03-03T01:31:30.225Z,100013.52
2019-03-03T01:32:05.898Z,100009.08
2019-03-03T01:32:41.531Z,100009.08
2019-03-03T01:33:17.104Z,99997.28
2019-03-03T01:33:52.801Z,100003.69
2019-03-03T01:34:29.157Z,100010.63
2019-03-03T01:35:04.581Z,100013.56
2019-03-03T01:35:40.215Z,100004.94
2019-03-03T01:36:15.739Z,100004.94
2019-03-03T01:36:51.425Z,100005.83
2019-03-03T01:37:26.837Z,100007.44
2019-03-03T01:38:02.536Z,100001.91
2019-03-03T01:38:38.656Z,100000.49
2019-03-03T01:39:14.347Z,100000.49
2019-03-03T01:39:50.425Z,100000.31
2019-03-03T01:40:25.850Z,100000.31
2019-03-03T01:41:01.482Z,99994.22
2019-03-03T01:41:36.873Z,100003.92
2019-03-03T01:42:12.355Z,99999.91
2019-03-03T01:42:48.237Z,99994.93
2019-03-03T01:43:23.873Z,99994.93
2019-03-03T01:43:59.339Z,99992.31
2019-03-03T01:44:35.001Z,99998.40
2019-03-03T01:45:11.545Z,99998.40
2019-03-03T01:45:47.085Z,99999.16
2019-03-03T01:46:22.987Z,99993.45
2019-03-03T01:46:58.362Z,99981.00
2019-03-03T01:47:33.746Z,99981.00
2019-03-03T01:48:09.450Z,100002.53
2019-03-03T01:48:45.498Z,99979.45
2019-03-03T01:49:21.199Z,99986.17
2019-03-03T01:49:57.034Z,99986.17
2019-03-03T01:50:32.514Z,99980.52
2019-03-03T01:51:08.365Z,99980.52
2019-03-03T01:51:43.762Z,99978.42
2019-03-03T01:52:19.253Z,99975.84
2019-03-03T01:52:54.664Z,99985.91
2019-03-03T01:53:30.043Z,99979.44
2019-03-03T01:54:05.775Z,99982.06
2019-03-03T01:54:41.154Z,99983.94
2019-03-03T01:55:16.644Z,99970.02
2019-03-03T01:55:52.071Z,99971.58
2019-03-03T01:56:28.008Z,99971.58
2019-03-03T01:57:03.642Z,99973.80
2019-03-03T01:57:39.023Z,99973.80
2019-03-03T01:58:15.193Z,99975.58
2019-03-03T01:58:51.441Z,99979.76
2019-03-03T01:59:27.131Z,99975.70
2019-03-03T02:00:02.777Z,99975.70
2019-03-03T02:00:38.445Z,99972.20
2019-03-03T02:01:13.958Z,99986.75
2019-03-03T02:01:49.450Z,99986.75
2019-03-03T02:02:24.823Z,99975.58
2019-03-03T02:03:00.290Z,99974.47
2019-03-03T02:03:36.490Z,99979.90
2019-03-03T02:04:12.154Z,99970.10
2019-03-03T02:04:47.647Z,99970.10
2019-03-03T02:05:23.472Z,99968.73
2019-03-03T02:05:58.860Z,99969.92
2019-03-03T02:06:34.494Z,99962.18
2019-03-03T02:07:09.893Z,99962.18
2019-03-03T02:07:45.383Z,99965.44
2019-03-03T02:08:21.075Z,99973.00
2019-03-03T02:08:56.478Z,99973.00
2019-03-03T02:09:31.988Z,99958.67
2019-03-03T02:10:07.961Z,99958.67
2019-03-03T02:10:44.480Z,99960.67
2019-03-03T02:11:19.921Z,99961.44
2019-03-03T02:11:55.333Z,99959.20
2019-03-03T02:12:30.874Z,99959.20
2019-03-03T02:13:06.595Z,99965.38
2019-03-03T02:13:42.267Z,99961.79
2019-03-03T02:14:17.794Z,99957.92
2019-03-03T02:14:53.228Z,99958.27
2019-03-03T02:15:29.312Z,99958.27
2019-03-03T02:16:05.762Z,99959.78
2019-03-03T02:16:41.452Z,99957.91
2019-03-03T02:17:16.919Z,99957.91
2019-03-03T02:17:52.315Z,99960.89
2019-03-03T02:18:27.952Z,99958.98
2019-03-03T02:19:03.869Z,99958.98
2019-03-03T02:19:39.504Z,99951.47
2019-03-03T02:20:14.894Z,99959.43
2019-03-03T02:20:50.340Z,99948.75
2019-03-03T02:21:26.298Z,99953.45
2019-03-03T02:22:01.658Z,99953.65
2019-03-03T02:22:37.058Z,99956.04
2019-03-03T02:23:12.782Z,99956.04
2019-03-03T02:23:48.460Z,99953.38
2019-03-03T02:24:23.942Z,99960.63
2019-03-03T02:24:59.568Z,99952.22
2019-03-03T02:25:34.957Z,99959.02
2019-03-03T02:26:10.431Z,99951.94
2019-03-03T02:26:46.129Z,99949.95
2019-03-03T02:27:21.779Z,99945.37
2019-03-03T02:27:57.250Z,99949.59
2019-03-03T02:28:32.868Z,99941.77
2019-03-03T02:29:08.574Z,99942.11
2019-03-03T02:29:44.724Z,99944.47
2019-03-03T02:30:21.188Z,99935.88
2019-03-03T02:30:56.567Z,99934.94
2019-03-03T02:31:32.025Z,99939.66
2019-03-03T02:32:07.496Z,99942.91
2019-03-03T02:32:43.140Z,99942.91
2019-03-03T02:33:19.169Z,99927.13
2019-03-03T02:33:54.548Z,99943.36
2019-03-03T02:34:30.307Z,99943.36
2019-03-03T02:35:05.927Z,99940.87
2019-03-03T02:35:41.303Z,99942.34
2019-03-03T02:36:16.733Z,99935.98
2019-03-03T02:36:52.687Z,99947.50
2019-03-03T02:37:28.615Z,99947.50
2019-03-03T02:38:03.998Z,99937.45
2019-03-03T02:38:39.379Z,99945.32
2019-03-03T02:39:18.796Z,99945.32
2019-03-03T02:39:54.236Z,99930.60
2019-03-03T02:40:30.177Z,99936.73
2019-03-03T02:41:05.860Z,99943.19
2019-03-03T02:41:41.296Z,99943.19
2019-03-03T02:42:16.959Z,99939.14
2019-03-03T02:42:52.368Z,99939.14
2019-03-03T02:43:27.747Z,99942.30
2019-03-03T02:44:03.512Z,99938.52
2019-03-03T02:44:38.882Z,99938.52
2019-03-03T02:45:14.930Z,99934.42
2019-03-03T02:45:50.361Z,99942.06
2019-03-03T02:46:26.067Z,99942.06
2019-03-03T02:47:01.466Z,99920.53
2019-03-03T02:47:37.026Z,99932.98
2019-03-03T02:48:12.663Z,99924.09
2019-03-03T02:48:48.088Z,99927.69
2019-03-03T02:49:23.886Z,99941.66
2019-03-03T02:49:59.614Z,99941.66
2019-03-03T02:50:35.279Z,99920.25
2019-03-03T02:51:10.660Z,99930.23
2019-03-03T02:51:46.366Z,99930.23
2019-03-03T02:52:22.064Z,99931.17
2019-03-03T02:52:57.753Z,99926.63
2019-03-03T02:53:33.443Z,99926.63
2019-03-03T02:54:08.858Z,99933.08
2019-03-03T02:54:44.507Z,99933.08
2019-03-03T02:55:19.920Z,99932.03
2019-03-03T02:55:55.607Z,99937.24
2019-03-03T02:56:30.983Z,99933.77
2019-03-03T02:57:06.373Z,99933.77
2019-03-03T02:57:42.004Z,99945.88
2019-03-03T02:58:17.415Z,99945.88
2019-03-03T02:58:52.848Z,99933.66
2019-03-03T02:59:28.261Z,99943.52
2019-03-03T03:00:04.578Z,99940.09
2019-03-03T03:00:47.746Z,99944.81
2019-03-03T03:01:26.786Z,99938.53
2019-03-03T03:02:04.706Z,99938.53
2019-03-03T03:02:45.242Z,99944.77
2019-03-03T03:03:21.407Z,99944.77
2019-03-03T03:03:56.792Z,99944.87
2019-03-03T03:04:32.205Z,99944.87
2019-03-03T03:05:07.791Z,99942.23
2019-03-03T03:06:02.155Z,99940.10
2019-03-03T03:06:51.290Z,99941.05
2019-03-03T03:08:00.551Z,99949.98
2019-03-03T03:08:57.676Z,99932.23
2019-03-03T03:09:53.518Z,99932.23
2019-03-03T03:10:40.919Z,99926.68
2019-03-03T03:11:30.012Z,99923.44
2019-03-03T03:12:22.762Z,99923.44
2019-03-03T03:13:16.050Z,99915.95
2019-03-03T03:14:10.705Z,99917.59
2019-03-03T03:15:05.061Z,99910.03
2019-03-03T03:16:00.876Z,99910.03
2019-03-03T03:17:01.353Z,99912.09
2019-03-03T03:18:04.932Z,99909.06
2019-03-03T03:18:59.264Z,99910.97
2019-03-03T03:19:42.547Z,99911.82
2019-03-03T03:20:48.919Z,99911.82
2019-03-03T03:21:48.876Z,99912.77
2019-03-03T03:22:33.896Z,99912.77
2019-03-03T03:23:37.436Z,99927.30
2019-03-03T03:24:37.610Z,99921.17
2019-03-03T03:25:30.506Z,99921.17
2019-03-03T03:26:27.619Z,99908.05
2019-03-03T03:27:20.741Z,99909.59
2019-03-03T03:28:21.368Z,99907.01
2019-03-03T03:29:24.548Z,99907.01
2019-03-03T03:30:19.844Z,99910.23
2019-03-03T03:31:09.511Z,99906.31
2019-03-03T03:32:03.853Z,99906.31
2019-03-03T03:32:46.800Z,99908.55
2019-03-03T03:33:40.679Z,99908.55
2019-03-03T03:34:20.805Z,99902.22
2019-03-03T03:35:24.179Z,99897.69
2019-03-03T03:36:21.902Z,99891.72
2019-03-03T03:37:25.440Z,99897.50
2019-03-03T03:38:22.890Z,99905.52
2019-03-03T03:39:26.132Z,99898.84
2019-03-03T03:40:14.398Z,99898.84
2019-03-03T03:40:55.314Z,99904.33
2019-03-03T03:41:55.477Z,99904.41
2019-03-03T03:42:50.197Z,99907.25
2019-03-03T03:43:59.604Z,99900.72
2019-03-03T03:45:01.487Z,99900.72
2019-03-03T03:45:53.363Z,99903.16
2019-03-03T03:46:44.414Z,99903.16
2019-03-03T03:47:41.999Z,99902.32
2019-03-03T03:48:45.097Z,99902.32
2019-03-03T03:49:27.616Z,99916.86
2019-03-03T03:50:24.833Z,99909.30
2019-03-03T03:51:09.065Z,99909.30
2019-03-03T03:52:06.560Z,99903.78
2019-03-03T03:52:58.274Z,99908.72
2019-03-03T03:53:50.532Z,99908.72
2019-03-03T03:54:39.247Z,99902.72
2019-03-03T03:55:48.855Z,99904.84
2019-03-03T03:56:45.805Z,99912.41
2019-03-03T03:57:52.376Z,99912.41
2019-03-03T03:58:45.168Z,99899.25
2019-03-03T03:59:26.001Z,99889.52
2019-03-03T04:00:18.855Z,99899.86
2019-03-03T04:01:19.349Z,99903.78
2019-03-03T04:02:05.434Z,99903.78
2019-03-03T04:02:59.875Z,99896.41
2019-03-03T04:03:52.842Z,99896.41
2019-03-03T04:04:37.864Z,99902.72
2019-03-03T04:05:19.728Z,99902.72
2019-03-03T04:06:18.909Z,99898.19
2019-03-03T04:07:03.017Z,99898.19
2019-03-03T04:08:00.466Z,99903.70
2019-03-03T04:08:50.160Z,99905.12
2019-03-03T04:09:47.562Z,99896.54
2019-03-03T04:10:51.055Z,99895.97
2019-03-03T04:11:51.209Z,99895.97
2019-03-03T04:12:46.033Z,99898.50
2019-03-03T04:13:29.832Z,99897.48
2019-03-03T04:14:17.179Z,99901.75
2019-03-03T04:15:27.051Z,99901.83
2019-03-03T04:16:19.780Z,99898.84
2019-03-03T04:17:14.461Z,99898.84
2019-03-03T04:18:07.265Z,99912.91
2019-03-03T04:19:07.474Z,99899.78
2019-03-03T04:19:55.955Z,99899.78
2019-03-03T04:20:48.740Z,99900.45
2019-03-03T04:21:39.998Z,99906.98
2019-03-03T04:22:34.678Z,99898.55
2019-03-03T04:23:17.250Z,99898.55
2019-03-03T04:24:01.305Z,99895.42
2019-03-03T04:24:54.587Z,99895.42
2019-03-03T04:25:47.455Z,99897.65
2019-03-03T04:26:29.563Z,99883.52
2019-03-03T04:27:20.950Z,99883.52
2019-03-03T04:28:24.745Z,99893.61
2019-03-03T04:29:27.949Z,99893.61
2019-03-03T04:30:17.947Z,99899.25
2019-03-03T04:31:05.977Z,99879.37
2019-03-03T04:32:05.116Z,99892.55
2019-03-03T04:32:58.225Z,99894.41
2019-03-03T04:33:45.100Z,99885.11
2019-03-03T04:34:39.541Z,99882.35
2019-03-03T04:35:33.899Z,99882.35
2019-03-03T04:36:21.893Z,99891.88
2019-03-03T04:37:22.284Z,99881.63
2019-03-03T04:38:19.724Z,99894.28
2019-03-03T04:39:09.539Z,99894.28
2019-03-03T04:40:04.167Z,99892.40
2019-03-03T04:41:03.207Z,99884.41
2019-03-03T04:41:50.320Z,99880.31
2019-03-03T04:42:41.353Z,99883.42
2019-03-03T04:43:27.844Z,99883.42
2019-03-03T04:44:10.610Z,99888.67
2019-03-03T04:45:04.970Z,99868.34
2019-03-03T04:45:44.926Z,99877.59
2019-03-03T04:46:51.408Z,99876.57
2019-03-03T04:47:33.917Z,99880.94
2019-03-03T04:48:35.855Z,99870.13
2019-03-03T04:49:25.621Z,99873.77
2019-03-03T04:50:23.098Z,99873.77
2019-03-03T04:51:27.005Z,99869.10
2019-03-03T04:52:14.782Z,99860.82
2019-03-03T04:53:01.191Z,99865.23
2019-03-03T04:53:56.914Z,99875.77
2019-03-03T04:54:51.562Z,99865.51
2019-03-03T04:55:51.962Z,99865.51
2019-03-03T04:56:32.964Z,99873.59
2019-03-03T04:57:33.352Z,99866.52
2019-03-03T04:58:27.831Z,99873.45
2019-03-03T04:59:28.011Z,99871.41
2019-03-03T05:00:25.363Z,99876.22
2019-03-03T05:01:22.654Z,99869.58
2019-03-03T05:02:08.430Z,99869.58
2019-03-03T05:03:18.310Z,99864.62
2019-03-03T05:04:02.846Z,99865.53
2019-03-03T05:04:52.574Z,99872.48
2019-03-03T05:05:47.036Z,99857.63
2019-03-03T05:06:40.133Z,99859.03
2019-03-03T05:07:33.157Z,99865.35
2019-03-03T05:08:42.684Z,99859.60
2019-03-03T05:09:29.503Z,99864.36
2019-03-03T05:10:24.796Z,99866.31
2019-03-03T05:11:18.084Z,99855.61
2019-03-03T05:12:26.973Z,99855.61
2019-03-03T05:13:21.453Z,99861.39
2019-03-03T05:14:12.900Z,99864.23
2019-03-03T05:14:48.547Z,99847.42
2019-03-03T05:15:41.296Z,99856.41
2019-03-03T05:16:28.189Z,99848.09
2019-03-03T05:17:09.503Z,99854.09
2019-03-03T05:17:49.969Z,99846.35
2019-03-03T05:18:29.675Z,99846.80
2019-03-03T05:19:11.827Z,99846.80
2019-03-03T05:19:52.183Z,99845.23
2019-03-03T05:20:39.456Z,99838.78
2019-03-03T05:21:15.135Z,99838.56
2019-03-03T05:21:50.554Z,99833.50
2019-03-03T05:22:25.932Z,99841.73
2019-03-03T05:23:01.937Z,99842.58
2019-03-03T05:23:37.584Z,99853.34
2019-03-03T05:24:12.964Z,99853.34
2019-03-03T05:24:48.650Z,99833.95
2019-03-03T05:25:24.325Z,99842.66
2019-03-03T05:25:59.690Z,99838.00
2019-03-03T05:26:35.333Z,99840.58
2019-03-03T05:27:10.750Z,99837.32
2019-03-03T05:27:46.402Z,99838.66
2019-03-03T05:28:21.827Z,99838.66
2019-03-03T05:28:57.239Z,99837.04
2019-03-03T05:29:32.935Z,99835.80
2019-03-03T05:30:08.484Z,99832.42
2019-03-03T05:30:44.125Z,99826.16
2019-03-03T05:31:20.083Z,99826.16
2019-03-03T05:31:55.709Z,99829.40
2019-03-03T05:32:31.096Z,99829.40
2019-03-03T05:33:07.036Z,99818.19
2019-03-03T05:33:42.713Z,99818.19
2019-03-03T05:34:18.162Z,99820.27
2019-03-03T05:34:53.536Z,99818.08
2019-03-03T05:35:28.936Z,99816.84
2019-03-03T05:36:04.330Z,99816.84
2019-03-03T05:36:39.732Z,99800.26
2019-03-03T05:37:15.162Z,99800.26
2019-03-03T05:37:50.667Z,99806.97
2019-03-03T05:38:26.096Z,99811.19
2019-03-03T05:39:02.110Z,99805.08
2019-03-03T05:39:37.721Z,99803.15
2019-03-03T05:40:13.106Z,99803.15
2019-03-03T05:40:48.803Z,99796.78
2019-03-03T05:41:24.299Z,99788.96
2019-03-03T05:41:59.705Z,99788.96
2019-03-03T05:42:35.115Z,99795.86
2019-03-03T05:43:10.501Z,99781.17
2019-03-03T05:43:45.936Z,99795.26
2019-03-03T05:44:21.360Z,99788.96
2019-03-03T05:44:56.755Z,99781.17
2019-03-03T05:45:32.420Z,99791.48
2019-03-03T05:46:08.085Z,99791.48
2019-03-03T05:46:44.194Z,99788.36
2019-03-03T05:47:19.624Z,99788.67
2019-03-03T05:47:55.301Z,99788.67
2019-03-03T05:48:30.747Z,99780.87
2019-03-03T05:49:06.125Z,99794.23
2019-03-03T05:49:41.757Z,99789.59
2019-03-03T05:50:17.464Z,99789.59
2019-03-03T05:50:52.975Z,99790.80
2019-03-03T05:51:28.612Z,99790.80
2019-03-03T05:52:04.005Z,99789.06
2019-03-03T05:52:39.704Z,99787.83
2019-03-03T05:53:15.406Z,99787.83
2019-03-03T05:53:51.187Z,99782.80
2019-03-03T05:54:27.051Z,99787.77
2019-03-03T05:55:02.783Z,99790.25
2019-03-03T05:55:38.205Z,99790.25
2019-03-03T05:56:16.300Z,99786.59
2019-03-03T05:56:51.826Z,99786.72
2019-03-03T05:57:27.233Z,99778.74
2019-03-03T05:58:02.607Z,99778.74
2019-03-03T05:58:38.281Z,99792.63
2019-03-03T05:59:13.711Z,99782.22
2019-03-03T05:59:49.151Z,99790.20
2019-03-03T06:00:24.819Z,99795.22
2019-03-03T06:01:00.209Z,99795.22
2019-03-03T06:01:35.595Z,99792.39
2019-03-03T06:02:11.557Z,99781.88
2019-03-03T06:02:46.987Z,99791.36
2019-03-03T06:03:22.465Z,99791.36
2019-03-03T06:03:57.899Z,99790.95
2019-03-03T06:04:33.308Z,99786.48
2019-03-03T06:05:08.688Z,99794.22
2019-03-03T06:05:44.094Z,99783.90
2019-03-03T06:06:19.499Z,99783.90
2019-03-03T06:06:54.955Z,99786.58
2019-03-03T06:07:30.342Z,99775.97
2019-03-03T06:08:05.715Z,99780.34
2019-03-03T06:08:41.433Z,99782.42
2019-03-03T06:09:17.085Z,99782.42
2019-03-03T06:09:52.668Z,99770.16
2019-03-03T06:10:28.065Z,99772.89
2019-03-03T06:11:03.475Z,99772.28
2019-03-03T06:11:39.122Z,99772.28
2019-03-03T06:12:14.521Z,99783.90
2019-03-03T06:12:49.949Z,99775.47
2019-03-03T06:13:25.371Z,99775.47
2019-03-03T06:14:00.864Z,99771.25
2019-03-03T06:14:36.266Z,99767.52
2019-03-03T06:15:12.872Z,99770.41
2019-03-03T06:15:48.853Z,99770.41
2019-03-03T06:16:24.511Z,99779.28
2019-03-03T06:16:59.949Z,99764.41
2019-03-03T06:17:35.583Z,99764.41
2019-03-03T06:18:11.221Z,99776.06
2019-03-03T06:18:46.669Z,99763.01
2019-03-03T06:19:22.378Z,99766.08
2019-03-03T06:19:57.769Z,99763.80
2019-03-03T06:20:33.149Z,99765.34
2019-03-03T06:21:08.772Z,99764.05
2019-03-03T06:21:44.205Z,99779.94
2019-03-03T06:22:20.223Z,99779.94
2019-03-03T06:22:55.868Z,99772.64
2019-03-03T06:23:31.247Z,99772.04
2019-03-03T06:24:06.655Z,99771.69
2019-03-03T06:24:42.031Z,99771.69
2019-03-03T06:25:17.557Z,99788.97
2019-03-03T06:25:53.223Z,99778.05
2019-03-03T06:26:28.872Z,99778.05
2019-03-03T06:27:04.532Z,99772.30
2019-03-03T06:27:39.940Z,99772.30
2019-03-03T06:28:15.409Z,99779.69
2019-03-03T06:28:51.192Z,99774.66
2019-03-03T06:29:26.885Z,99783.11
2019-03-03T06:30:02.286Z,99783.11
2019-03-03T06:30:37.767Z,99783.16
2019-03-03T06:31:13.410Z,99782.72
2019-03-03T06:31:49.196Z,99783.75
2019-03-03T06:32:24.590Z,99775.16
2019-03-03T06:33:00.550Z,99774.41
2019-03-03T06:33:36.507Z,99784.44
2019-03-03T06:34:11.922Z,99783.20
2019-03-03T06:34:47.704Z,99783.20
2019-03-03T06:35:23.175Z,99789.01
2019-03-03T06:35:58.819Z,99778.45
2019-03-03T06:36:34.802Z,99788.02
2019-03-03T06:37:10.191Z,99788.02
2019-03-03T06:37:45.595Z,99788.22
2019-03-03T06:38:21.258Z,99786.42
2019-03-03T06:38:56.995Z,99788.61
2019-03-03T06:39:32.633Z,99780.53
2019-03-03T06:40:08.586Z,99781.20
2019-03-03T06:40:43.979Z,99781.20
2019-03-03T06:41:19.407Z,99791.90
2019-03-03T06:41:55.106Z,99793.69
2019-03-03T06:42:30.761Z,99792.64
2019-03-03T06:43:06.162Z,99797.36
2019-03-03T06:43:41.548Z,99797.36
2019-03-03T06:44:17.015Z,99798.05
2019-03-03T06:44:52.535Z,99795.06
2019-03-03T06:45:28.480Z,99793.34
2019-03-03T06:46:03.887Z,99800.63
2019-03-03T06:46:39.539Z,99792.19
2019-03-03T06:47:15.259Z,99797.55
2019-03-03T06:47:50.703Z,99795.67
2019-03-03T06:48:26.120Z,99794.93
2019-03-03T06:49:01.528Z,99799.41
2019-03-03T06:49:36.923Z,99798.55
2019-03-03T06:50:12.524Z,99812.59
2019-03-03T06:50:48.204Z,99807.69
2019-03-03T06:51:23.872Z,99807.69
2019-03-03T06:51:59.258Z,99805.39
2019-03-03T06:52:34.946Z,99810.71
2019-03-03T06:53:10.594Z,99801.38
2019-03-03T06:53:46.275Z,99793.42
2019-03-03T06:54:21.979Z,99799.84
2019-03-03T06:54:57.374Z,99795.42
2019-03-03T06:55:33.039Z,99795.42
2019-03-03T06:56:08.437Z,99791.25
2019-03-03T06:56:44.112Z,99792.28
2019-03-03T06:57:19.597Z,99789.36
2019-03-03T06:57:55.137Z,99793.13
2019-03-03T06:58:30.815Z,99795.37
2019-03-03T06:59:06.782Z,99794.87
2019-03-03T06:59:42.169Z,99794.87
2019-03-03T07:00:17.936Z,99799.19
2019-03-03T07:00:53.468Z,99802.37
2019-03-03T07:01:29.395Z,99804.85
2019-03-03T07:02:05.156Z,99797.45
2019-03-03T07:02:41.092Z,99809.52
2019-03-03T07:03:16.522Z,99809.52
2019-03-03T07:03:51.988Z,99802.72
2019-03-03T07:04:27.692Z,99796.16
2019-03-03T07:05:03.090Z,99802.87
2019-03-03T07:05:38.782Z,99798.66
2019-03-03T07:06:14.177Z,99802.22
2019-03-03T07:06:49.622Z,99802.22
2019-03-03T07:07:25.114Z,99800.09
2019-03-03T07:08:00.753Z,99800.09
2019-03-03T07:08:36.131Z,99802.67
2019-03-03T07:09:11.820Z,99803.31
2019-03-03T07:09:47.851Z,99803.31
2019-03-03T07:10:23.265Z,99794.22
2019-03-03T07:10:58.649Z,99798.49
2019-03-03T07:11:34.684Z,99796.22
2019-03-03T07:12:10.087Z,99796.22
2019-03-03T07:12:45.768Z,99806.39
2019-03-03T07:13:21.455Z,99791.82
2019-03-03T07:13:56.887Z,99791.82
2019-03-03T07:14:32.546Z,99801.31
2019-03-03T07:15:09.951Z,99790.95
2019-03-03T07:15:45.454Z,99794.77
2019-03-03T07:16:21.162Z,99794.77
2019-03-03T07:16:56.941Z,99784.12
2019-03-03T07:17:32.311Z,99784.12
2019-03-03T07:18:07.944Z,99792.38
2019-03-03T07:18:43.422Z,99794.13
2019-03-03T07:19:18.897Z,99797.16
2019-03-03T07:19:54.330Z,99798.92
2019-03-03T07:20:29.981Z,99798.87
2019-03-03T07:21:06.003Z,99794.74
2019-03-03T07:21:41.412Z,99794.74
2019-03-03T07:22:16.851Z,99800.16
2019-03-03T07:22:52.279Z,99802.31
2019-03-03T07:23:27.953Z,99802.31
2019-03-03T07:24:03.627Z,99800.58
2019-03-03T07:24:39.605Z,99807.53
2019-03-03T07:25:15.291Z,99800.27
2019-03-03T07:25:50.943Z,99801.78
2019-03-03T07:26:26.949Z,99808.38
2019-03-03T07:27:02.580Z,99792.78
2019-03-03T07:27:38.078Z,99805.13
2019-03-03T07:28:13.773Z,99807.32
2019-03-03T07:28:49.448Z,99811.05
2019-03-03T07:29:24.852Z,99811.05
2019-03-03T07:30:00.340Z,99812.73
2019-03-03T07:30:35.701Z,99818.09
2019-03-03T07:31:11.348Z,99816.25
2019-03-03T07:31:47.074Z,99816.45
2019-03-03T07:32:23.037Z,99808.84
2019-03-03T07:33:16.120Z,99808.84
2019-03-03T07:33:54.861Z,99815.06
2019-03-03T07:34:30.269Z,99817.20
2019-03-03T07:35:05.987Z,99812.13
2019-03-03T07:35:41.673Z,99809.84
2019-03-03T07:36:17.371Z,99811.64
2019-03-03T07:36:52.781Z,99811.64
2019-03-03T07:37:28.484Z,99815.60
2019-03-03T07:38:03.907Z,99816.25
2019-03-03T07:38:39.317Z,99808.86
2019-03-03T07:39:19.093Z,99812.03
2019-03-03T07:39:54.522Z,99812.17
2019-03-03T07:40:29.940Z,99812.17
2019-03-03T07:41:05.346Z,99807.18
2019-03-03T07:41:40.783Z,99811.50
2019-03-03T07:42:17.371Z,99811.78
2019-03-03T07:42:52.841Z,99809.14
2019-03-03T07:43:28.252Z,99813.78
2019-03-03T07:44:03.807Z,99813.78
2019-03-03T07:44:39.548Z,99817.55
2019-03-03T07:45:15.315Z,99822.66
2019-03-03T07:45:51.101Z,99814.03
2019-03-03T07:46:26.513Z,99812.83
2019-03-03T07:47:02.475Z,99814.00
2019-03-03T07:47:38.171Z,99816.36
2019-03-03T07:48:13.856Z,99812.83
2019-03-03T07:48:49.323Z,99808.64
2019-03-03T07:49:24.735Z,99803.67
2019-03-03T07:50:00.414Z,99811.88
2019-03-03T07:50:36.145Z,99811.73
2019-03-03T07:51:11.537Z,99819.37
2019-03-03T07:51:47.260Z,99820.46
2019-03-03T07:52:22.713Z,99811.03
2019-03-03T07:52:58.154Z,99818.39
2019-03-03T07:53:33.895Z,99815.55
2019-03-03T07:54:09.366Z,99813.75
2019-03-03T07:54:45.116Z,99821.36
2019-03-03T07:55:20.566Z,99811.22
2019-03-03T07:55:56.272Z,99815.86
2019-03-03T07:56:31.941Z,99805.52
2019-03-03T07:57:06.896Z,99805.52
2019-03-03T07:57:42.301Z,99816.59
2019-03-03T07:58:17.795Z,99812.31
2019-03-03T07:58:53.275Z,99808.30